createdAt,value
2016-06-12T00:00:17.042Z,16.05
2016-06-12T00:01:30.892Z,16.05
2016-06-12T00:02:17.048Z,16.07
2016-06-12T00:03:17.067Z,16.09
2016-06-12T00:04:16.851Z,16.08
2016-06-12T00:05:17.198Z,16.02
2016-06-12T00:06:16.857Z,16.08
2016-06-12T00:07:17.298Z,16.11
2016-06-12T00:08:17.114Z,16.09
2016-06-12T00:09:17.126Z,16.12
2016-06-12T00:10:31.881Z,16.12
2016-06-12T00:11:17.022Z,16.11
2016-06-12T00:12:17.047Z,16.08
2016-06-12T00:13:17.104Z,16.07
2016-06-12T00:15:17.160Z,16.01
2016-06-12T00:16:31.241Z,16.07
2016-06-12T00:17:17.194Z,16.09
2016-06-12T00:18:17.211Z,16.05
2016-06-12T00:19:17.222Z,16.05
2016-06-12T00:20:17.215Z,16.08
2016-06-12T00:21:17.254Z,16.04
2016-06-12T00:22:17.465Z,15.97
2016-06-12T00:23:17.504Z,16.04
2016-06-12T00:24:17.323Z,16
2016-06-12T00:25:17.297Z,16.04
2016-06-12T00:26:17.302Z,16.01
2016-06-12T00:27:17.354Z,16.04
2016-06-12T00:28:17.312Z,16.05
2016-06-12T00:29:17.534Z,16.05
2016-06-12T00:30:17.538Z,16.02
2016-06-12T00:31:17.166Z,16.01
2016-06-12T00:32:17.561Z,15.92
2016-06-12T00:33:17.548Z,15.89
2016-06-12T00:34:17.568Z,15.87
2016-06-12T00:35:17.790Z,15.92
2016-06-12T00:36:17.387Z,15.87
2016-06-12T00:37:17.391Z,15.94
2016-06-12T00:38:18.659Z,15.92
2016-06-12T00:39:17.600Z,15.92
2016-06-12T00:40:17.854Z,15.9
2016-06-12T00:41:17.840Z,15.89
2016-06-12T00:42:17.875Z,15.86
2016-06-12T00:43:17.846Z,15.89
2016-06-12T00:44:17.475Z,15.84
2016-06-12T00:45:17.462Z,15.87
2016-06-12T00:46:17.887Z,15.83
2016-06-12T00:47:17.328Z,15.86
2016-06-12T00:48:17.690Z,15.86
2016-06-12T00:49:17.693Z,15.86
2016-06-12T00:50:17.525Z,15.74
2016-06-12T00:51:17.684Z,15.76
2016-06-12T00:52:17.719Z,15.72
2016-06-12T00:53:17.518Z,15.71
2016-06-12T00:54:17.615Z,15.74
2016-06-12T00:55:17.040Z,15.68
2016-06-12T00:56:17.386Z,15.71
2016-06-12T00:57:17.546Z,15.75
2016-06-12T00:58:17.549Z,15.68
2016-06-12T00:59:17.755Z,15.69
2016-06-12T01:00:18.008Z,15.65
2016-06-12T01:01:17.590Z,15.6
2016-06-12T01:03:17.799Z,15.59
2016-06-12T01:04:19.068Z,15.59
2016-06-12T01:06:17.839Z,15.53
2016-06-12T01:07:17.826Z,15.54
2016-06-12T01:08:17.877Z,15.51
2016-06-12T01:09:18.051Z,15.43
2016-06-12T01:10:17.649Z,15.51
2016-06-12T01:11:17.511Z,15.47
2016-06-12T01:12:17.638Z,15.46
2016-06-12T01:13:17.189Z,15.47
2016-06-12T01:14:18.067Z,15.39
2016-06-12T01:15:17.726Z,15.38
2016-06-12T01:16:31.762Z,15.31
2016-06-12T01:17:31.764Z,15.28
2016-06-12T01:18:31.814Z,15.38
2016-06-12T01:19:17.957Z,15.34
2016-06-12T01:20:17.726Z,15.32
2016-06-12T01:21:17.791Z,15.31
2016-06-12T01:22:17.466Z,15.35
2016-06-12T01:23:17.923Z,15.25
2016-06-12T01:24:17.723Z,15.25
2016-06-12T01:25:17.945Z,15.23
2016-06-12T01:26:17.745Z,15.27
2016-06-12T01:27:17.748Z,15.23
2016-06-12T01:28:17.985Z,15.19
2016-06-12T01:29:17.769Z,15.23
2016-06-12T01:30:17.975Z,15.25
2016-06-12T01:31:17.792Z,15.2
2016-06-12T01:32:17.794Z,15.16
2016-06-12T01:33:17.813Z,15.09
2016-06-12T01:34:18.020Z,15.14
2016-06-12T01:35:17.945Z,15.17
2016-06-12T01:36:17.823Z,15.11
2016-06-12T01:37:17.826Z,15.06
2016-06-12T01:38:17.844Z,15.03
2016-06-12T01:39:17.847Z,14.96
2016-06-12T01:40:17.850Z,15.01
2016-06-12T01:41:17.870Z,14.95
2016-06-12T01:42:17.903Z,14.99
2016-06-12T01:43:17.890Z,15.03
2016-06-12T01:44:17.878Z,14.94
2016-06-12T01:45:17.913Z,14.92
2016-06-12T01:49:17.925Z,14.88
2016-06-12T01:50:18.334Z,14.86
2016-06-12T01:51:17.915Z,14.89
2016-06-12T01:52:17.934Z,14.8
2016-06-12T01:53:32.234Z,14.75
2016-06-12T01:54:18.378Z,14.72
2016-06-12T01:55:18.163Z,14.81
2016-06-12T01:56:18.243Z,14.73
2016-06-12T01:57:18.168Z,14.73
2016-06-12T01:58:18.187Z,14.8
2016-06-12T01:59:18.018Z,14.73
2016-06-12T02:00:18.443Z,14.69
2016-06-12T02:01:17.853Z,14.73
2016-06-12T02:02:18.246Z,14.65
2016-06-12T02:03:18.015Z,14.62
2016-06-12T02:04:18.018Z,14.72
2016-06-12T02:05:18.380Z,14.73
2016-06-12T02:06:18.071Z,14.61
2016-06-12T02:07:18.230Z,14.64
2016-06-12T02:08:18.077Z,14.65
2016-06-12T02:09:18.503Z,14.69
2016-06-12T02:10:18.084Z,14.61
2016-06-12T02:11:18.321Z,14.62
2016-06-12T02:12:32.152Z,14.57
2016-06-12T02:13:32.155Z,14.54
2016-06-12T02:14:18.361Z,14.64
2016-06-12T02:15:18.099Z,14.55
2016-06-12T02:16:18.164Z,14.58
2016-06-12T02:17:18.167Z,14.58
2016-06-12T02:18:18.139Z,14.6
2016-06-12T02:19:18.111Z,14.58
2016-06-12T02:20:18.317Z,14.55
2016-06-12T02:21:18.164Z,14.52
2016-06-12T02:23:18.420Z,14.47
2016-06-12T02:24:18.329Z,14.55
2016-06-12T02:25:18.160Z,14.43
2016-06-12T02:26:18.164Z,14.43
2016-06-12T02:27:18.401Z,14.43
2016-06-12T02:28:18.185Z,14.4
2016-06-12T02:29:18.189Z,14.46
2016-06-12T02:30:18.223Z,14.39
2016-06-12T02:31:18.210Z,14.45
2016-06-12T02:32:32.495Z,14.37
2016-06-12T02:33:18.233Z,14.39
2016-06-12T02:34:18.235Z,14.39
2016-06-12T02:35:18.238Z,14.33
2016-06-12T02:36:18.538Z,14.4
2016-06-12T02:37:18.260Z,14.39
2016-06-12T02:38:18.435Z,14.32
2016-06-12T02:39:18.438Z,14.32
2016-06-12T02:40:18.285Z,14.33
2016-06-12T02:41:18.256Z,14.32
2016-06-12T02:42:18.510Z,14.28
2016-06-12T02:43:18.310Z,14.29
2016-06-12T02:44:18.282Z,14.36
2016-06-12T02:45:32.378Z,14.36
2016-06-12T02:46:32.600Z,14.33
2016-06-12T02:47:18.228Z,14.36
2016-06-12T02:48:32.419Z,14.35
2016-06-12T02:49:18.297Z,14.27
2016-06-12T02:51:18.084Z,14.35
2016-06-12T02:52:18.760Z,14.32
2016-06-12T02:53:18.730Z,14.33
2016-06-12T02:54:18.343Z,14.36
2016-06-12T02:55:18.347Z,14.32
2016-06-12T02:56:18.584Z,14.29
2016-06-12T02:57:18.571Z,14.33
2016-06-12T02:58:18.371Z,14.37
2016-06-12T02:59:18.406Z,14.35
2016-06-12T03:00:18.409Z,14.4
2016-06-12T03:01:18.630Z,14.37
2016-06-12T03:03:18.105Z,14.37
2016-06-12T03:04:18.389Z,14.32
2016-06-12T03:05:18.425Z,14.37
2016-06-12T03:06:18.567Z,14.28
2016-06-12T03:07:18.648Z,14.33
2016-06-12T03:08:32.715Z,14.36
2016-06-12T03:09:18.827Z,14.4
2016-06-12T03:10:18.439Z,14.36
2016-06-12T03:11:18.474Z,14.42
2016-06-12T03:12:18.664Z,14.45
2016-06-12T03:13:18.699Z,14.37
2016-06-12T03:14:18.889Z,14.45
2016-06-12T03:15:32.580Z,14.55
2016-06-12T03:16:18.521Z,14.46
2016-06-12T03:17:18.523Z,14.5
2016-06-12T03:18:18.511Z,14.51
2016-06-12T03:19:18.701Z,14.57
2016-06-12T03:20:32.829Z,14.57
2016-06-12T03:21:18.646Z,14.55
2016-06-12T03:22:47.104Z,14.55
2016-06-12T03:23:18.744Z,14.55
2016-06-12T03:24:18.576Z,14.54
2016-06-12T03:25:18.329Z,14.57
2016-06-12T03:26:18.536Z,14.57
2016-06-12T03:27:18.539Z,14.54
2016-06-12T03:28:18.557Z,14.6
2016-06-12T03:29:18.107Z,14.54
2016-06-12T03:30:18.564Z,14.61
2016-06-12T03:31:18.785Z,14.58
2016-06-12T03:32:18.819Z,14.61
2016-06-12T03:33:18.589Z,14.58
2016-06-12T03:34:19.014Z,14.65
2016-06-12T03:35:18.360Z,14.64
2016-06-12T03:36:19.300Z,14.7
2016-06-12T03:37:18.460Z,14.68
2016-06-12T03:38:18.635Z,14.72
2016-06-12T03:39:18.654Z,14.78
2016-06-12T03:40:18.641Z,14.78
2016-06-12T03:41:18.863Z,14.83
2016-06-12T03:42:18.851Z,14.84
2016-06-12T03:43:18.650Z,14.81
2016-06-12T03:44:18.887Z,14.92
2016-06-12T03:45:18.859Z,14.94
2016-06-12T03:46:18.518Z,14.99
2016-06-12T03:47:18.679Z,14.96
2016-06-12T03:48:18.682Z,15.02
2016-06-12T03:49:18.902Z,15.1
2016-06-12T03:50:18.703Z,15.11
2016-06-12T03:51:18.831Z,15.13
2016-06-12T03:52:18.741Z,15.23
2016-06-12T03:53:18.744Z,15.16
2016-06-12T03:54:18.965Z,15.21
2016-06-12T03:55:18.735Z,15.27
2016-06-12T03:56:18.753Z,15.2
2016-06-12T03:57:18.990Z,15.32
2016-06-12T03:58:33.040Z,15.34
2016-06-12T03:59:18.980Z,15.39
2016-06-12T04:00:19.016Z,15.32
2016-06-12T04:01:18.815Z,15.49
2016-06-12T04:02:19.021Z,15.36
2016-06-12T04:03:18.820Z,15.49
2016-06-12T04:04:19.246Z,15.59
2016-06-12T04:05:18.843Z,15.57
2016-06-12T04:06:19.424Z,15.56
2016-06-12T04:07:32.927Z,15.64
2016-06-12T04:08:19.040Z,15.75
2016-06-12T04:09:19.089Z,15.71
2016-06-12T04:10:19.499Z,15.71
2016-06-12T04:11:18.861Z,15.89
2016-06-12T04:12:18.880Z,15.86
2016-06-12T04:13:19.086Z,15.94
2016-06-12T04:14:18.887Z,15.93
2016-06-12T04:15:18.904Z,15.96
2016-06-12T04:16:19.143Z,16.04
2016-06-12T04:18:18.930Z,16.09
2016-06-12T04:19:19.135Z,16.09
2016-06-12T04:20:33.030Z,16.07
2016-06-12T04:21:19.720Z,16.09
2016-06-12T04:22:18.989Z,16.2
2016-06-12T04:23:18.992Z,16.2
2016-06-12T04:24:19.214Z,16.3
2016-06-12T04:25:18.999Z,16.25
2016-06-12T04:26:18.985Z,16.3
2016-06-12T04:27:19.598Z,16.31
2016-06-12T04:28:19.007Z,16.35
2016-06-12T04:29:19.417Z,16.42
2016-06-12T04:31:19.064Z,16.42
2016-06-12T04:32:19.066Z,16.46
2016-06-12T04:33:19.070Z,16.5
2016-06-12T04:34:19.073Z,16.58
2016-06-12T04:35:19.091Z,16.52
2016-06-12T04:36:19.110Z,16.46
2016-06-12T04:37:19.269Z,16.6
2016-06-12T04:38:19.117Z,16.61
2016-06-12T04:39:19.103Z,16.6
2016-06-12T04:40:19.341Z,16.58
2016-06-12T04:41:19.142Z,16.58
2016-06-12T04:42:33.598Z,16.58
2016-06-12T04:44:19.401Z,16.67
2016-06-12T04:45:19.169Z,16.75
2016-06-12T04:46:19.375Z,16.66
2016-06-12T04:48:19.397Z,16.71
2016-06-12T04:49:19.400Z,16.73
2016-06-12T04:50:33.497Z,16.76
2016-06-12T04:51:20.593Z,16.68
2016-06-12T04:53:19.693Z,16.75
2016-06-12T04:54:19.274Z,16.75
2016-06-12T04:55:19.497Z,16.7
2016-06-12T04:56:19.281Z,16.7
2016-06-12T04:57:19.174Z,16.79
2016-06-12T04:58:19.131Z,16.75
2016-06-12T04:59:19.493Z,16.71
2016-06-12T05:00:19.496Z,16.75
2016-06-12T05:01:19.546Z,16.75
2016-06-12T05:02:19.377Z,16.81
2016-06-12T05:03:19.037Z,16.82
2016-06-12T05:05:33.652Z,16.81
2016-06-12T05:06:33.984Z,16.73
2016-06-12T05:07:19.362Z,16.91
2016-06-12T05:08:33.661Z,16.86
2016-06-12T05:09:19.586Z,16.81
2016-06-12T05:10:19.387Z,16.86
2016-06-12T05:12:19.392Z,16.88
2016-06-12T05:13:19.411Z,16.89
2016-06-12T05:14:19.430Z,16.82
2016-06-12T05:15:19.152Z,16.85
2016-06-12T05:16:19.670Z,16.96
2016-06-12T05:17:19.455Z,16.85
2016-06-12T05:18:33.926Z,16.85
2016-06-12T05:19:19.915Z,16.88
2016-06-12T05:20:19.698Z,16.91
2016-06-12T05:21:19.514Z,16.93
2016-06-12T05:22:19.689Z,16.94
2016-06-12T05:23:19.927Z,16.89
2016-06-12T05:24:19.491Z,17.03
2016-06-12T05:25:19.745Z,16.89
2016-06-12T05:26:19.513Z,17.01
2016-06-12T05:27:19.517Z,16.96
2016-06-12T05:28:19.739Z,16.91
2016-06-12T05:29:19.539Z,17
2016-06-12T05:31:19.577Z,17.06
2016-06-12T05:32:19.563Z,17.08
2016-06-12T05:33:19.583Z,17.01
2016-06-12T05:34:19.600Z,17.12
2016-06-12T05:35:19.620Z,17.16
2016-06-12T05:36:20.544Z,17.06
2016-06-12T05:37:20.017Z,17.25
2016-06-12T05:38:19.629Z,17.22
2016-06-12T05:39:20.038Z,17.19
2016-06-12T05:40:19.854Z,17.23
2016-06-12T05:41:19.654Z,17.26
2016-06-12T05:42:19.657Z,17.28
2016-06-12T05:43:33.769Z,17.31
2016-06-12T05:44:19.975Z,17.36
2016-06-12T05:45:19.744Z,17.34
2016-06-12T05:47:19.953Z,17.43
2016-06-12T05:48:19.768Z,17.4
2016-06-12T05:49:33.818Z,17.44
2016-06-12T05:50:20.149Z,17.49
2016-06-12T05:51:20.278Z,17.44
2016-06-12T05:52:19.625Z,17.54
2016-06-12T05:53:20.019Z,17.52
2016-06-12T05:54:20.037Z,17.55
2016-06-12T05:55:20.040Z,17.59
2016-06-12T05:56:19.825Z,17.51
2016-06-12T05:57:19.828Z,17.59
2016-06-12T05:58:19.847Z,17.63
2016-06-12T05:59:20.052Z,17.7
2016-06-12T06:00:19.884Z,17.71
2016-06-12T06:01:19.888Z,17.75
2016-06-12T06:02:19.858Z,17.72
2016-06-12T06:03:19.894Z,17.77
2016-06-12T06:04:20.099Z,17.92
2016-06-12T06:05:19.900Z,17.95
2016-06-12T06:06:20.230Z,17.96
2016-06-12T06:07:20.124Z,18.07
2016-06-12T06:08:19.924Z,18.02
2016-06-12T06:09:20.177Z,18.11
2016-06-12T06:10:19.946Z,18.11
2016-06-12T06:11:19.996Z,18.21
2016-06-12T06:12:20.358Z,18.21
2016-06-12T06:13:20.377Z,18.21
2016-06-12T06:14:20.427Z,18.21
2016-06-12T06:15:19.993Z,18.15
2016-06-12T06:16:20.011Z,18.17
2016-06-12T06:17:20.014Z,18.21
2016-06-12T06:18:20.424Z,18.25
2016-06-12T06:19:20.021Z,18.21
2016-06-12T06:20:20.258Z,18.3
2016-06-12T06:21:20.151Z,18.35
2016-06-12T06:22:20.280Z,18.33
2016-06-12T06:23:20.298Z,18.32
2016-06-12T06:24:20.083Z,18.51
2016-06-12T06:25:20.101Z,18.55
2016-06-12T06:26:20.090Z,18.5
2016-06-12T06:27:34.404Z,18.51
2016-06-12T06:28:20.345Z,18.52
2016-06-12T06:29:20.192Z,18.66
2016-06-12T06:30:20.148Z,18.55
2016-06-12T06:31:34.230Z,18.62
2016-06-12T06:32:20.200Z,18.63
2016-06-12T06:33:20.407Z,18.63
2016-06-12T06:35:20.037Z,18.72
2016-06-12T06:36:20.682Z,18.72
2016-06-12T06:37:20.732Z,18.72
2016-06-12T06:38:20.141Z,18.81
2016-06-12T06:39:20.660Z,18.8
2016-06-12T06:40:20.258Z,18.82
2016-06-12T06:41:20.682Z,18.9
2016-06-12T06:42:20.481Z,18.84
2016-06-12T06:43:20.298Z,18.82
2016-06-12T06:44:20.300Z,18.94
2016-06-12T06:45:20.523Z,18.98
2016-06-12T06:46:20.526Z,18.94
2016-06-12T06:47:20.325Z,18.92
2016-06-12T06:48:20.188Z,18.98
2016-06-12T06:50:20.413Z,18.99
2016-06-12T06:51:21.056Z,18.98
2016-06-12T06:52:20.465Z,19.16
2016-06-12T06:53:19.922Z,19.13
2016-06-12T06:54:19.925Z,19.08
2016-06-12T06:55:20.428Z,19.22
2016-06-12T06:56:20.446Z,19.29
2016-06-12T06:57:20.435Z,19.28
2016-06-12T06:58:20.875Z,19.37
2016-06-12T07:00:34.975Z,19.39
2016-06-12T07:01:20.493Z,19.39
2016-06-12T07:02:20.496Z,19.46
2016-06-12T07:03:20.703Z,19.48
2016-06-12T07:04:20.956Z,19.47
2016-06-12T07:05:20.740Z,19.58
2016-06-12T07:06:20.852Z,19.62
2016-06-12T07:07:20.606Z,19.66
2016-06-12T07:08:20.562Z,19.66
2016-06-12T07:09:20.784Z,19.65
2016-06-12T07:10:21.817Z,19.76
2016-06-12T07:11:20.587Z,19.77
2016-06-12T07:12:20.621Z,19.91
2016-06-12T07:13:20.640Z,19.94
2016-06-12T07:14:20.626Z,19.88
2016-06-12T07:15:20.646Z,20.08
2016-06-12T07:16:20.899Z,20.03
2016-06-12T07:18:21.108Z,20.13
2016-06-12T07:20:35.208Z,20.2
2016-06-12T07:21:20.820Z,20.24
2016-06-12T07:22:21.620Z,20.26
2016-06-12T07:23:20.796Z,20.36
2016-06-12T07:24:20.752Z,20.38
2016-06-12T07:25:21.004Z,20.35
2016-06-12T07:26:21.008Z,20.39
2016-06-12T07:27:20.822Z,20.35
2016-06-12T07:28:21.232Z,20.38
2016-06-12T07:29:20.798Z,20.39
2016-06-12T07:30:20.817Z,20.41
2016-06-12T07:31:20.835Z,20.5
2016-06-12T07:32:20.573Z,20.48
2016-06-12T07:33:20.841Z,20.51
2016-06-12T07:34:21.110Z,20.5
2016-06-12T07:35:20.894Z,20.52
2016-06-12T07:36:20.929Z,20.52
2016-06-12T07:37:21.432Z,20.54
2016-06-12T07:38:21.139Z,20.54
2016-06-12T07:39:21.579Z,20.62
2016-06-12T07:40:20.942Z,20.66
2016-06-12T07:42:21.369Z,20.66
2016-06-12T07:43:20.966Z,20.74
2016-06-12T07:44:21.125Z,20.79
2016-06-12T07:45:21.035Z,20.79
2016-06-12T07:46:21.038Z,20.88
2016-06-12T07:47:21.056Z,20.82
2016-06-12T07:48:21.059Z,20.89
2016-06-12T07:49:21.265Z,20.92
2016-06-12T07:50:21.065Z,20.98
2016-06-12T07:51:21.084Z,20.99
2016-06-12T07:52:21.399Z,21.03
2016-06-12T07:53:35.591Z,21.03
2016-06-12T07:54:21.000Z,20.99
2016-06-12T07:55:21.128Z,20.99
2016-06-12T07:56:21.741Z,21.03
2016-06-12T07:57:35.634Z,21.04
2016-06-12T07:58:21.200Z,21.12
2016-06-12T07:59:21.187Z,21.09
2016-06-12T08:00:21.049Z,21.03
2016-06-12T08:01:21.193Z,21.13
2016-06-12T08:02:21.228Z,21.1
2016-06-12T08:03:21.855Z,21.21
2016-06-12T08:04:35.766Z,21.19
2016-06-12T08:05:21.486Z,21.16
2016-06-12T08:06:21.474Z,21.31
2016-06-12T08:08:21.730Z,21.37
2016-06-12T08:09:21.531Z,21.42
2016-06-12T08:10:21.330Z,21.47
2016-06-12T08:12:21.555Z,21.52
2016-06-12T08:13:21.808Z,21.65
2016-06-12T08:14:21.592Z,21.56
2016-06-12T08:16:21.411Z,21.75
2016-06-12T08:17:21.414Z,21.86
2016-06-12T08:18:21.120Z,21.79
2016-06-12T08:19:21.452Z,21.9
2016-06-12T08:20:21.470Z,21.98
2016-06-12T08:21:21.474Z,22.03
2016-06-12T08:22:22.711Z,21.96
2016-06-12T08:23:21.699Z,22.06
2016-06-12T08:24:35.795Z,22.17
2016-06-12T08:25:21.736Z,22.1
2016-06-12T08:26:21.584Z,22.22
2016-06-12T08:27:50.351Z,22.22
2016-06-12T08:28:21.589Z,22.25
2016-06-12T08:29:21.593Z,22.31
2016-06-12T08:30:21.595Z,22.35
2016-06-12T08:31:22.005Z,22.4
2016-06-12T08:32:22.226Z,22.46
2016-06-12T08:33:35.807Z,22.46
2016-06-12T08:34:21.639Z,22.55
2016-06-12T08:35:21.656Z,22.67
2016-06-12T08:36:21.379Z,22.7
2016-06-12T08:37:21.663Z,22.83
2016-06-12T08:38:21.713Z,22.83
2016-06-12T08:39:21.763Z,22.92
2016-06-12T08:40:22.391Z,23
2016-06-12T08:41:21.957Z,23.1
2016-06-12T08:42:21.773Z,23.16
2016-06-12T08:43:21.807Z,23.32
2016-06-12T08:44:22.591Z,23.46
2016-06-12T08:45:22.423Z,23.53
2016-06-12T08:46:22.019Z,23.63
2016-06-12T08:47:22.037Z,23.69
2016-06-12T08:48:21.869Z,23.8
2016-06-12T08:49:21.904Z,23.97
2016-06-12T08:51:22.160Z,24.1
2016-06-12T08:52:36.788Z,24.25
2016-06-12T08:53:36.400Z,24.2
2016-06-12T08:54:22.185Z,24.35
2016-06-12T08:55:21.969Z,24.43
2016-06-12T08:56:22.425Z,24.47
2016-06-12T08:57:22.225Z,24.53
2016-06-12T08:58:22.260Z,24.64
2016-06-12T08:59:22.403Z,24.69
2016-06-12T09:00:22.437Z,24.81
2016-06-12T09:01:21.784Z,24.71
2016-06-12T09:03:22.087Z,24.8
2016-06-12T09:04:36.371Z,24.84
2016-06-12T09:05:22.140Z,24.98
2016-06-12T09:06:22.127Z,24.98
2016-06-12T09:07:22.302Z,25.02
2016-06-12T09:08:36.244Z,25.03
2016-06-12T09:09:22.808Z,25.05
2016-06-12T09:10:23.250Z,25.18
2016-06-12T09:11:22.206Z,25.14
2016-06-12T09:13:22.102Z,25.28
2016-06-12T09:15:22.509Z,25.28
2016-06-12T09:16:22.381Z,25.35
2016-06-12T09:17:22.691Z,25.38
2016-06-12T09:18:22.500Z,25.51
2016-06-12T09:19:22.543Z,25.45
2016-06-12T09:20:22.796Z,25.55
2016-06-12T09:21:36.781Z,25.55
2016-06-12T09:22:23.690Z,25.55
2016-06-12T09:23:22.677Z,25.57
2016-06-12T09:24:22.709Z,25.55
2016-06-12T09:25:22.733Z,25.55
2016-06-12T09:26:22.991Z,25.46
2016-06-12T09:27:37.249Z,25.47
2016-06-12T09:28:23.024Z,25.45
2016-06-12T09:29:22.829Z,25.46
2016-06-12T09:31:22.853Z,25.28
2016-06-12T09:32:37.187Z,25.24
2016-06-12T09:33:23.285Z,25.21
2016-06-12T09:34:23.915Z,25.21
2016-06-12T09:35:22.763Z,25.23
2016-06-12T09:36:37.017Z,25.14
2016-06-12T09:37:23.458Z,25.1
2016-06-12T09:38:37.664Z,25.03
2016-06-12T09:39:23.201Z,25.05
2016-06-12T09:40:23.360Z,24.9
2016-06-12T09:41:23.019Z,24.91
2016-06-12T09:42:23.242Z,24.93
2016-06-12T09:43:23.245Z,24.93
2016-06-12T09:44:23.108Z,24.85
2016-06-12T09:45:23.080Z,24.83
2016-06-12T09:46:23.099Z,24.85
2016-06-12T09:47:37.430Z,24.81
2016-06-12T09:48:23.339Z,24.8
2016-06-12T09:49:37.233Z,24.85
2016-06-12T09:50:24.408Z,24.8
2016-06-12T09:51:23.443Z,24.81
2016-06-12T09:52:23.757Z,24.8
2016-06-12T09:53:23.432Z,24.78
2016-06-12T09:54:23.389Z,24.85
2016-06-12T09:55:23.658Z,24.78
2016-06-12T09:56:23.285Z,24.8
2016-06-12T09:57:23.335Z,24.85
2016-06-12T09:58:23.417Z,24.93
2016-06-12T09:59:23.342Z,24.9
2016-06-12T10:00:23.329Z,25.02
2016-06-12T10:01:22.879Z,25.05
2016-06-12T10:02:27.741Z,25.08
2016-06-12T10:03:37.526Z,25.1
2016-06-12T10:04:23.404Z,25.23
2016-06-12T10:05:23.766Z,25.24
2016-06-12T10:06:23.629Z,25.23
2016-06-12T10:07:23.897Z,25.24
2016-06-12T10:08:23.713Z,25.35
2016-06-12T10:09:23.654Z,25.3
2016-06-12T10:10:23.970Z,25.42
2016-06-12T10:11:23.503Z,25.43
2016-06-12T10:12:23.569Z,25.36
2016-06-12T10:13:23.244Z,25.38
2016-06-12T10:14:23.763Z,25.36
2016-06-12T10:15:23.594Z,25.47
2016-06-12T10:16:23.753Z,25.5
2016-06-12T10:17:24.256Z,25.6
2016-06-12T10:18:24.072Z,25.6
2016-06-12T10:19:24.169Z,25.62
2016-06-12T10:20:23.953Z,25.69
2016-06-12T10:21:23.956Z,25.85
2016-06-12T10:22:24.319Z,25.91
2016-06-12T10:23:24.650Z,26.1
2016-06-12T10:24:23.919Z,26.13
2016-06-12T10:25:24.203Z,26.21
2016-06-12T10:26:23.815Z,26.18
2016-06-12T10:27:24.318Z,26.17
2016-06-12T10:28:23.962Z,26.21
2016-06-12T10:29:24.637Z,26.2
2016-06-12T10:30:41.437Z,26.21
2016-06-12T10:31:24.238Z,26.15
2016-06-12T10:32:24.178Z,26.15
2016-06-12T10:36:24.159Z,26.3
2016-06-12T10:38:25.399Z,26.28
2016-06-12T10:39:24.277Z,26.26
2016-06-12T10:40:24.437Z,26.33
2016-06-12T10:41:24.190Z,26.26
2016-06-12T10:42:24.318Z,26.33
2016-06-12T10:43:24.336Z,26.36
2016-06-12T10:44:24.308Z,26.36
2016-06-12T10:45:24.045Z,26.43
2016-06-12T10:46:24.392Z,26.5
2016-06-12T10:47:24.364Z,26.5
2016-06-12T10:48:24.399Z,26.5
2016-06-12T10:49:24.386Z,26.51
2016-06-12T10:50:24.373Z,26.51
2016-06-12T10:51:24.205Z,26.48
2016-06-12T10:52:24.427Z,26.48
2016-06-12T10:53:24.116Z,26.45
2016-06-12T10:54:24.714Z,26.48
2016-06-12T10:55:24.498Z,26.51
2016-06-12T10:57:24.301Z,26.35
2016-06-12T10:59:24.588Z,26.37
2016-06-12T11:00:24.498Z,26.25
2016-06-12T11:01:24.376Z,26.4
2016-06-12T11:02:24.395Z,26.33
2016-06-12T11:03:24.383Z,26.29
2016-06-12T11:04:24.447Z,26.35
2016-06-12T11:05:25.076Z,26.36
2016-06-12T11:06:24.485Z,26.28
2016-06-12T11:07:24.487Z,26.2
2016-06-12T11:08:24.523Z,26.2
2016-06-12T11:09:38.791Z,26.18
2016-06-12T11:10:24.544Z,26.09
2016-06-12T11:11:24.969Z,26.1
2016-06-12T11:12:24.956Z,26.05
2016-06-12T11:13:24.788Z,26.07
2016-06-12T11:14:24.792Z,26.09
2016-06-12T11:15:38.716Z,26.01
2016-06-12T11:16:24.657Z,26.06
2016-06-12T11:17:24.176Z,26.02
2016-06-12T11:18:24.381Z,25.94
2016-06-12T11:19:24.682Z,25.97
2016-06-12T11:20:24.716Z,25.97
2016-06-12T11:21:24.750Z,25.99
2016-06-12T11:22:26.550Z,26.05
2016-06-12T11:23:25.959Z,26.07
2016-06-12T11:24:25.165Z,26.09
2016-06-12T11:25:24.856Z,26.15
2016-06-12T11:26:25.265Z,26.2
2016-06-12T11:27:24.862Z,26.17
2016-06-12T11:28:24.880Z,26.32
2016-06-12T11:29:24.853Z,26.45
2016-06-12T11:30:25.074Z,26.51
2016-06-12T11:31:25.108Z,26.62
2016-06-12T11:32:24.925Z,26.77
2016-06-12T11:33:24.975Z,26.84
2016-06-12T11:34:24.915Z,26.87
2016-06-12T11:35:24.949Z,26.97
2016-06-12T11:36:39.312Z,26.95
2016-06-12T11:37:39.191Z,26.95
2016-06-12T11:38:25.287Z,26.95
2016-06-12T11:40:25.043Z,26.92
2016-06-12T11:41:25.483Z,27.02
2016-06-12T11:42:25.548Z,26.99
2016-06-12T11:43:25.114Z,26.92
2016-06-12T11:44:25.179Z,26.94
2016-06-12T11:46:25.952Z,26.95
2016-06-12T11:47:39.674Z,26.89
2016-06-12T11:48:25.192Z,26.94
2016-06-12T11:49:25.211Z,26.89
2016-06-12T11:50:25.230Z,26.91
2016-06-12T11:51:25.233Z,27
2016-06-12T11:52:24.736Z,27.03
2016-06-12T11:53:26.037Z,27.03
2016-06-12T11:54:25.335Z,27.06
2016-06-12T11:56:40.030Z,27.24
2016-06-12T11:57:39.829Z,27.32
2016-06-12T11:58:25.597Z,27.37
2016-06-12T11:59:26.008Z,27.46
2016-06-12T12:00:25.854Z,27.46
2016-06-12T12:01:25.670Z,27.5
2016-06-12T12:02:25.220Z,27.66
2016-06-12T12:03:39.754Z,27.77
2016-06-12T12:04:25.476Z,27.81
2016-06-12T12:06:39.622Z,27.84
2016-06-12T12:07:26.016Z,27.72
2016-06-12T12:08:26.175Z,27.59
2016-06-12T12:09:25.772Z,27.55
2016-06-12T12:10:25.776Z,27.49
2016-06-12T12:11:25.809Z,27.44
2016-06-12T12:12:26.187Z,27.32
2016-06-12T12:13:25.723Z,27.22
2016-06-12T12:14:26.101Z,27.28
2016-06-12T12:15:25.697Z,27.31
2016-06-12T12:16:25.748Z,27.28
2016-06-12T12:17:25.906Z,27.24
2016-06-12T12:18:25.769Z,27.18
2016-06-12T12:20:26.354Z,27.06
2016-06-12T12:22:26.235Z,26.94
2016-06-12T12:23:26.800Z,26.94
2016-06-12T12:26:26.091Z,26.91
2016-06-12T12:27:26.077Z,26.97
2016-06-12T12:28:25.909Z,26.77
2016-06-12T12:29:26.959Z,26.81
2016-06-12T12:30:26.353Z,26.81
2016-06-12T12:31:25.966Z,26.82
2016-06-12T12:32:26.218Z,26.77
2016-06-12T12:33:26.191Z,26.73
2016-06-12T12:34:40.288Z,26.65
2016-06-12T12:36:40.105Z,26.6
2016-06-12T12:37:26.702Z,26.54
2016-06-12T12:38:26.017Z,26.62
2016-06-12T12:39:26.084Z,26.52
2016-06-12T12:40:26.540Z,26.51
2016-06-12T12:42:26.265Z,26.5
2016-06-12T12:43:26.377Z,26.5
2016-06-12T12:44:26.412Z,26.4
2016-06-12T12:45:26.399Z,26.36
2016-06-12T12:46:26.386Z,26.43
2016-06-12T12:47:26.702Z,26.4
2016-06-12T12:48:26.376Z,26.37
2016-06-12T12:49:26.459Z,26.39
2016-06-12T12:50:26.727Z,26.39
2016-06-12T12:51:27.605Z,26.35
2016-06-12T12:52:26.171Z,26.39
2016-06-12T12:53:40.252Z,26.44
2016-06-12T12:54:26.395Z,26.43
2016-06-12T12:55:26.383Z,26.4
2016-06-12T12:56:39.980Z,26.39
2016-06-12T12:57:40.904Z,26.43
2016-06-12T12:58:27.236Z,26.37
2016-06-12T12:59:26.505Z,26.39
2016-06-12T13:00:26.476Z,26.4
2016-06-12T13:01:26.496Z,26.44
2016-06-12T13:02:26.905Z,26.37
2016-06-12T13:03:54.860Z,26.37
2016-06-12T13:04:26.519Z,26.37
2016-06-12T13:05:26.554Z,26.36
2016-06-12T13:06:26.556Z,26.4
2016-06-12T13:07:27.014Z,26.4
2016-06-12T13:08:27.032Z,26.35
2016-06-12T13:09:27.035Z,26.36
2016-06-12T13:11:26.667Z,26.48
2016-06-12T13:12:27.060Z,26.37
2016-06-12T13:13:40.953Z,26.5
2016-06-12T13:14:26.894Z,26.51
2016-06-12T13:15:26.694Z,26.48
2016-06-12T13:16:26.947Z,26.5
2016-06-12T13:17:26.966Z,26.5
2016-06-12T13:18:26.735Z,26.52
2016-06-12T13:19:27.207Z,26.5
2016-06-12T13:20:27.382Z,26.52
2016-06-12T13:21:26.869Z,26.5
2016-06-12T13:22:27.231Z,26.55
2016-06-12T13:23:27.281Z,26.57
2016-06-12T13:24:26.848Z,26.6
2016-06-12T13:25:27.506Z,26.77
2016-06-12T13:26:27.306Z,26.73
2016-06-12T13:27:27.122Z,26.89
2016-06-12T13:28:41.187Z,26.88
2016-06-12T13:29:26.909Z,26.85
2016-06-12T13:30:41.069Z,26.94
2016-06-12T13:31:27.383Z,26.91
2016-06-12T13:32:26.996Z,26.99
2016-06-12T13:33:27.094Z,26.97
2016-06-12T13:34:26.925Z,26.92
2016-06-12T13:35:27.067Z,26.95
2016-06-12T13:36:27.071Z,26.99
2016-06-12T13:37:27.090Z,27
2016-06-12T13:38:26.938Z,26.91
2016-06-12T13:39:27.753Z,26.97
2016-06-12T13:41:27.164Z,26.77
2016-06-12T13:42:27.574Z,26.77
2016-06-12T13:43:27.686Z,26.75
2016-06-12T13:44:27.221Z,26.63
2016-06-12T13:45:27.677Z,26.54